createdAt,value
2022-11-08T00:01:58.629Z,1018.13
2022-11-08T00:03:58.541Z,1018.13
2022-11-08T00:05:58.530Z,1018.07
2022-11-08T00:07:58.520Z,1018.10
2022-11-08T00:09:58.494Z,1018.07
2022-11-08T00:11:58.587Z,1018.06
2022-11-08T00:13:58.606Z,1018.06
2022-11-08T00:15:58.537Z,1018.06
2022-11-08T00:17:58.689Z,1017.96
2022-11-08T00:19:58.676Z,1017.95
2022-11-08T00:21:58.575Z,1017.95
2022-11-08T00:23:58.579Z,1017.95
2022-11-08T00:28:09.367Z,1017.90
2022-11-08T00:30:09.452Z,1017.87
2022-11-08T00:32:09.416Z,1017.87
2022-11-08T00:34:09.364Z,1017.82
2022-11-08T00:36:09.370Z,1017.82
2022-11-08T00:38:09.538Z,1017.89
2022-11-08T00:40:09.405Z,1017.82
2022-11-08T00:42:09.437Z,1017.82
2022-11-08T00:44:09.394Z,1017.82
2022-11-08T00:46:09.415Z,1017.82
2022-11-08T00:48:09.372Z,1017.82
2022-11-08T00:50:09.402Z,1017.82
2022-11-08T00:52:09.366Z,1017.81
2022-11-08T00:54:09.412Z,1017.78
2022-11-08T00:56:09.397Z,1017.78
2022-11-08T00:58:09.445Z,1017.80
2022-11-08T01:00:09.413Z,1017.80
2022-11-08T01:02:09.455Z,1017.80
2022-11-08T01:04:09.423Z,1017.80
2022-11-08T01:06:09.380Z,1017.80
2022-11-08T01:08:09.402Z,1017.80
2022-11-08T01:10:09.436Z,1017.80
2022-11-08T01:12:09.410Z,1017.76
2022-11-08T01:14:09.474Z,1017.77
2022-11-08T01:16:09.410Z,1017.75
2022-11-08T01:18:09.382Z,1017.75
2022-11-08T01:20:09.485Z,1017.67
2022-11-08T01:22:09.426Z,1017.63
2022-11-08T01:24:09.533Z,1017.65
2022-11-08T01:26:09.454Z,1017.63
2022-11-08T01:28:09.480Z,1017.63
2022-11-08T01:30:09.401Z,1017.62
2022-11-08T01:32:09.420Z,1017.65
2022-11-08T01:34:39.446Z,1017.61
2022-11-08T01:36:39.430Z,1017.61
2022-11-08T01:38:39.430Z,1017.61
2022-11-08T01:40:39.416Z,1017.55
2022-11-08T01:42:39.457Z,1017.55
2022-11-08T01:44:39.408Z,1017.55
2022-11-08T01:46:39.529Z,1017.55
2022-11-08T01:48:39.461Z,1017.37
2022-11-08T01:50:39.442Z,1017.35
2022-11-08T01:52:39.567Z,1017.32
2022-11-08T01:54:39.435Z,1017.25
2022-11-08T01:56:39.515Z,1017.25
2022-11-08T01:58:39.447Z,1017.26
2022-11-08T02:00:39.547Z,1017.26
2022-11-08T02:02:39.497Z,1017.22
2022-11-08T02:04:39.435Z,1017.21
2022-11-08T02:06:39.424Z,1017.21
2022-11-08T02:08:39.578Z,1017.20
2022-11-08T02:10:39.469Z,1017.20
2022-11-08T02:12:39.460Z,1017.20
2022-11-08T02:14:39.490Z,1017.14
2022-11-08T02:16:39.429Z,1017.14
2022-11-08T02:18:39.479Z,1017.10
2022-11-08T02:20:39.430Z,1017.11
2022-11-08T02:22:39.442Z,1017.09
2022-11-08T02:24:39.479Z,1017.09
2022-11-08T02:26:39.449Z,1017.09
2022-11-08T02:28:39.454Z,1017.06
2022-11-08T02:30:39.483Z,1017.02
2022-11-08T02:32:39.440Z,1017.02
2022-11-08T02:34:39.449Z,1017.02
2022-11-08T02:36:39.455Z,1017.02
2022-11-08T02:38:39.467Z,1017.05
2022-11-08T02:40:39.545Z,1017.05
2022-11-08T02:42:39.443Z,1016.98
2022-11-08T02:44:39.457Z,1016.98
2022-11-08T02:46:39.576Z,1016.90
2022-11-08T02:48:39.519Z,1016.90
2022-11-08T02:50:39.496Z,1016.90
2022-11-08T02:52:39.592Z,1016.90
2022-11-08T02:54:39.457Z,1016.80
2022-11-08T02:56:39.503Z,1016.81
2022-11-08T02:58:39.520Z,1016.74
2022-11-08T03:00:39.487Z,1016.72
2022-11-08T03:02:39.549Z,1016.72
2022-11-08T03:04:39.457Z,1016.67
2022-11-08T03:06:39.471Z,1016.67
2022-11-08T03:08:39.518Z,1016.67
2022-11-08T03:10:39.534Z,1016.65
2022-11-08T03:12:39.496Z,1016.65
2022-11-08T03:14:39.475Z,1016.69
2022-11-08T03:16:39.606Z,1016.61
2022-11-08T03:18:39.466Z,1016.65
2022-11-08T03:20:39.597Z,1016.65
2022-11-08T03:22:39.513Z,1016.65
2022-11-08T03:24:39.625Z,1016.57
2022-11-08T03:26:39.483Z,1016.49
2022-11-08T03:29:09.568Z,1016.49
2022-11-08T03:31:09.476Z,1016.50
2022-11-08T03:33:09.486Z,1016.47
2022-11-08T03:35:09.475Z,1016.47
2022-11-08T03:37:09.596Z,1016.47
2022-11-08T03:39:09.486Z,1016.54
2022-11-08T03:41:09.546Z,1016.47
2022-11-08T03:43:09.509Z,1016.47
2022-11-08T03:45:09.471Z,1016.47
2022-11-08T03:47:09.550Z,1016.47
2022-11-08T03:49:09.468Z,1016.46
2022-11-08T03:51:09.517Z,1016.46
2022-11-08T03:53:09.522Z,1016.46
2022-11-08T03:55:09.548Z,1016.39
2022-11-08T03:57:09.500Z,1016.27
2022-11-08T03:59:09.501Z,1016.27
2022-11-08T04:01:09.541Z,1016.22
2022-11-08T04:03:09.517Z,1016.22
2022-11-08T04:05:09.563Z,1016.36
2022-11-08T04:07:09.547Z,1016.36
2022-11-08T04:09:09.508Z,1016.36
2022-11-08T04:11:09.532Z,1016.27
2022-11-08T04:13:09.488Z,1016.27
2022-11-08T04:15:09.539Z,1016.28
2022-11-08T04:17:09.493Z,1016.22
2022-11-08T04:19:09.479Z,1016.25
2022-11-08T04:21:09.537Z,1016.25
2022-11-08T04:23:09.511Z,1016.27
2022-11-08T04:25:09.537Z,1016.28
2022-11-08T04:27:09.559Z,1016.28
2022-11-08T04:29:09.514Z,1016.14
2022-11-08T04:31:09.572Z,1016.14
2022-11-08T04:33:09.534Z,1016.15
2022-11-08T04:35:09.508Z,1016.16
2022-11-08T04:37:09.513Z,1016.15
2022-11-08T04:39:09.678Z,1016.21
2022-11-08T04:41:09.541Z,1016.21
2022-11-08T04:43:09.506Z,1016.18
2022-11-08T04:45:09.509Z,1016.13
2022-11-08T04:47:09.519Z,1016.08
2022-11-08T04:49:09.592Z,1016.08
2022-11-08T04:51:09.532Z,1016.08
2022-11-08T04:53:09.509Z,1016.02
2022-11-08T04:55:09.664Z,1015.94
2022-11-08T04:57:09.542Z,1015.90
2022-11-08T04:59:11.936Z,1015.90
2022-11-08T05:01:09.644Z,1015.90
2022-11-08T05:03:09.509Z,1015.91
2022-11-08T05:05:09.572Z,1015.86
2022-11-08T05:07:09.639Z,1015.86
2022-11-08T05:09:09.655Z,1015.86
2022-11-08T05:11:09.589Z,1015.86
2022-11-08T05:13:09.529Z,1015.81
2022-11-08T05:15:09.678Z,1015.81
2022-11-08T05:17:09.549Z,1015.73
2022-11-08T05:19:13.175Z,1015.73
2022-11-08T05:21:09.548Z,1015.65
2022-11-08T05:23:09.575Z,1015.67
2022-11-08T05:25:39.557Z,1015.69
2022-11-08T05:27:39.532Z,1015.69
2022-11-08T05:29:42.205Z,1015.69
2022-11-08T05:31:39.557Z,1015.72
2022-11-08T05:33:39.623Z,1015.74
2022-11-08T05:35:39.624Z,1015.70
2022-11-08T05:37:39.672Z,1015.70
2022-11-08T05:39:39.659Z,1015.69
2022-11-08T05:41:39.589Z,1015.67
2022-11-08T05:43:39.627Z,1015.72
2022-11-08T05:45:39.618Z,1015.73
2022-11-08T05:47:39.637Z,1015.73
2022-11-08T05:49:39.560Z,1015.73
2022-11-08T05:51:39.561Z,1015.57
2022-11-08T05:53:39.686Z,1015.52
2022-11-08T05:55:39.860Z,1015.52
2022-11-08T05:57:39.583Z,1015.51
2022-11-08T05:59:39.642Z,1015.48
2022-11-08T06:01:39.702Z,1015.44
2022-11-08T06:03:39.715Z,1015.46
2022-11-08T06:05:39.567Z,1015.46
2022-11-08T06:07:39.653Z,1015.46
2022-11-08T06:09:39.684Z,1015.45
2022-11-08T06:11:39.594Z,1015.48
2022-11-08T06:13:39.619Z,1015.48
2022-11-08T06:15:39.602Z,1015.48
2022-11-08T06:17:39.593Z,1015.54
2022-11-08T06:19:39.613Z,1015.58
2022-11-08T06:21:39.685Z,1015.52
2022-11-08T06:23:39.610Z,1015.52
2022-11-08T06:25:41.097Z,1015.60
2022-11-08T06:27:39.590Z,1015.60
2022-11-08T06:29:39.603Z,1015.60
2022-11-08T06:31:42.820Z,1015.60
2022-11-08T06:33:39.561Z,1015.60
2022-11-08T06:35:39.721Z,1015.63
2022-11-08T06:37:39.572Z,1015.63
2022-11-08T06:39:39.602Z,1015.63
2022-11-08T06:41:39.609Z,1015.68
2022-11-08T06:43:39.620Z,1015.68
2022-11-08T06:45:39.611Z,1015.67
2022-11-08T06:47:39.605Z,1015.65
2022-11-08T06:49:39.587Z,1015.65
2022-11-08T06:51:39.710Z,1015.65
2022-11-08T06:53:39.584Z,1015.66
2022-11-08T06:55:39.582Z,1015.69
2022-11-08T06:57:39.596Z,1015.68
2022-11-08T06:59:39.646Z,1015.64
2022-11-08T07:01:44.558Z,1015.64
2022-11-08T07:03:39.584Z,1015.73
2022-11-08T07:05:39.781Z,1015.67
2022-11-08T07:07:39.588Z,1015.64
2022-11-08T07:09:39.650Z,1015.64
2022-11-08T07:11:39.705Z,1015.64
2022-11-08T07:13:39.708Z,1015.68
2022-11-08T07:15:39.698Z,1015.64
2022-11-08T07:17:39.581Z,1015.61
2022-11-08T07:20:09.640Z,1015.60
2022-11-08T07:22:09.696Z,1015.53
2022-11-08T07:24:09.623Z,1015.53
2022-11-08T07:26:09.624Z,1015.53
2022-11-08T07:28:09.716Z,1015.56
2022-11-08T07:30:09.720Z,1015.61
2022-11-08T07:32:09.619Z,1015.63
2022-11-08T07:34:09.663Z,1015.63
2022-11-08T07:36:09.643Z,1015.66
2022-11-08T07:38:09.660Z,1015.66
2022-11-08T07:40:09.738Z,1015.65
2022-11-08T07:42:09.684Z,1015.71
2022-11-08T07:44:09.675Z,1015.71
2022-11-08T07:46:09.721Z,1015.69
2022-11-08T07:48:11.617Z,1015.71
2022-11-08T07:52:18.286Z,1015.71
2022-11-08T07:54:18.314Z,1015.70
2022-11-08T07:56:18.351Z,1015.64
2022-11-08T07:58:18.251Z,1015.63
2022-11-08T08:00:18.268Z,1015.59
2022-11-08T08:02:18.339Z,1015.59
2022-11-08T08:04:18.244Z,1015.65
2022-11-08T08:06:18.326Z,1015.69
2022-11-08T08:08:18.318Z,1015.61
2022-11-08T08:10:18.347Z,1015.68
2022-11-08T08:12:18.296Z,1015.68
2022-11-08T08:14:18.398Z,1015.77
2022-11-08T08:16:18.289Z,1015.86
2022-11-08T08:18:18.279Z,1015.73
2022-11-08T08:20:18.464Z,1015.76
2022-11-08T08:22:18.365Z,1015.76
2022-11-08T08:24:18.416Z,1015.66
2022-11-08T08:26:18.289Z,1015.70
2022-11-08T08:28:18.317Z,1015.71
2022-11-08T08:30:18.296Z,1015.71
2022-11-08T08:32:18.319Z,1015.71
2022-11-08T08:34:18.279Z,1015.74
2022-11-08T08:36:18.319Z,1015.81
2022-11-08T08:38:18.275Z,1015.75
2022-11-08T08:40:18.422Z,1015.75
2022-11-08T08:42:18.302Z,1015.76
2022-11-08T08:44:18.340Z,1015.64
2022-11-08T08:46:18.346Z,1015.64
2022-11-08T08:48:18.285Z,1015.68
2022-11-08T08:50:18.325Z,1015.68
2022-11-08T08:52:18.318Z,1015.64
2022-11-08T08:54:18.391Z,1015.63
2022-11-08T08:56:18.353Z,1015.63
2022-11-08T08:58:18.397Z,1015.63
2022-11-08T09:02:18.312Z,1015.59
2022-11-08T09:04:18.305Z,1015.57
2022-11-08T09:06:18.299Z,1015.53
2022-11-08T09:08:18.308Z,1015.53
2022-11-08T09:10:18.350Z,1015.50
2022-11-08T09:12:18.365Z,1015.50
2022-11-08T09:14:18.333Z,1015.47
2022-11-08T09:16:18.368Z,1015.50
2022-11-08T09:18:18.375Z,1015.50
2022-11-08T09:20:18.388Z,1015.53
2022-11-08T09:22:18.409Z,1015.58
2022-11-08T09:24:18.342Z,1015.59
2022-11-08T09:26:18.359Z,1015.59
2022-11-08T09:28:18.460Z,1015.59
2022-11-08T09:30:18.334Z,1015.59
2022-11-08T09:32:24.849Z,1015.59
2022-11-08T09:34:21.527Z,1015.59
2022-11-08T09:36:18.352Z,1015.59
2022-11-08T09:38:18.573Z,1015.57
2022-11-08T09:40:18.373Z,1015.52
2022-11-08T09:42:18.348Z,1015.50
2022-11-08T09:44:18.435Z,1015.42
2022-11-08T09:46:18.465Z,1015.42
2022-11-08T09:48:18.375Z,1015.41
2022-11-08T09:50:48.373Z,1015.46
2022-11-08T09:52:48.323Z,1015.46
2022-11-08T09:54:48.388Z,1015.46
2022-11-08T09:56:48.407Z,1015.47
2022-11-08T09:58:48.358Z,1015.47
2022-11-08T10:00:48.358Z,1015.51
2022-11-08T10:02:48.463Z,1015.49
2022-11-08T10:04:48.343Z,1015.49
2022-11-08T10:06:48.388Z,1015.48
2022-11-08T10:08:48.349Z,1015.54
2022-11-08T10:10:48.398Z,1015.58
2022-11-08T10:12:48.450Z,1015.63
2022-11-08T10:14:53.940Z,1015.63
2022-11-08T10:16:48.365Z,1015.67
2022-11-08T10:18:48.518Z,1015.71
2022-11-08T10:20:48.376Z,1015.74
2022-11-08T10:22:48.421Z,1015.74
2022-11-08T10:24:48.425Z,1015.74
2022-11-08T10:26:48.470Z,1015.74
2022-11-08T10:28:48.481Z,1015.76
2022-11-08T10:30:48.513Z,1015.81
2022-11-08T10:32:48.421Z,1015.81
2022-11-08T10:34:48.359Z,1015.81
2022-11-08T10:36:48.415Z,1015.79
2022-11-08T10:38:48.399Z,1015.91
2022-11-08T10:40:48.407Z,1015.90
2022-11-08T10:42:48.412Z,1015.90
2022-11-08T10:44:48.370Z,1015.80
2022-11-08T10:46:48.394Z,1015.77
2022-11-08T10:48:48.408Z,1015.67
2022-11-08T10:50:48.411Z,1015.65
2022-11-08T10:52:48.476Z,1015.65
2022-11-08T10:54:48.455Z,1015.59
2022-11-08T10:56:48.414Z,1015.67
2022-11-08T10:58:48.490Z,1015.57
2022-11-08T11:00:48.401Z,1015.57
2022-11-08T11:02:48.503Z,1015.58
2022-11-08T11:04:48.529Z,1015.54
2022-11-08T11:06:48.468Z,1015.49
2022-11-08T11:08:48.503Z,1015.44
2022-11-08T11:10:48.447Z,1015.44
2022-11-08T11:12:48.521Z,1015.42
2022-11-08T11:14:48.395Z,1015.42
2022-11-08T11:16:48.452Z,1015.42
2022-11-08T11:18:48.435Z,1015.46
2022-11-08T11:20:48.426Z,1015.46
2022-11-08T11:22:48.445Z,1015.38
2022-11-08T11:24:48.515Z,1015.41
2022-11-08T11:26:48.484Z,1015.39
2022-11-08T11:28:48.487Z,1015.39
2022-11-08T11:30:48.532Z,1015.34
2022-11-08T11:32:48.552Z,1015.32
2022-11-08T11:34:48.448Z,1015.35
2022-11-08T11:36:48.526Z,1015.34
2022-11-08T11:38:48.538Z,1015.34
2022-11-08T11:40:48.538Z,1015.31
2022-11-08T11:42:48.486Z,1015.31
2022-11-08T11:44:48.680Z,1015.28
2022-11-08T11:46:48.473Z,1015.29
2022-11-08T11:48:48.558Z,1015.29
2022-11-08T11:51:18.452Z,1015.15
2022-11-08T11:53:18.598Z,1015.15
2022-11-08T11:55:18.495Z,1015.15
2022-11-08T11:57:18.430Z,1015.16
2022-11-08T11:59:18.517Z,1015.22
2022-11-08T12:01:18.438Z,1015.22
2022-11-08T12:03:18.784Z,1015.16
2022-11-08T12:05:18.580Z,1015.13
2022-11-08T12:07:18.502Z,1015.09
2022-11-08T12:09:18.513Z,1015.05
2022-11-08T12:11:18.490Z,1015.05
2022-11-08T12:13:18.628Z,1015.08
2022-11-08T12:15:18.559Z,1015.06
2022-11-08T12:17:18.559Z,1015.03
2022-11-08T12:19:18.673Z,1015.05
2022-11-08T12:21:18.563Z,1015.05
2022-11-08T12:23:18.511Z,1015.04
2022-11-08T12:25:18.469Z,1015.01
2022-11-08T12:27:18.516Z,1015.03
2022-11-08T12:29:18.519Z,1015.03
2022-11-08T12:31:18.522Z,1015.03
2022-11-08T12:33:18.493Z,1015.04
2022-11-08T12:35:18.568Z,1015.04
2022-11-08T12:37:18.603Z,1014.96
2022-11-08T12:39:23.376Z,1014.96
2022-11-08T12:41:18.615Z,1015.03
2022-11-08T12:43:19.023Z,1015.01
2022-11-08T12:45:18.581Z,1015.03
2022-11-08T12:47:18.575Z,1015.01
2022-11-08T12:49:18.592Z,1015.01
2022-11-08T12:51:18.542Z,1014.99
2022-11-08T12:53:18.488Z,1015.01
2022-11-08T12:55:18.541Z,1015.00
2022-11-08T12:57:18.507Z,1015.00
2022-11-08T12:59:18.502Z,1015.01
2022-11-08T13:01:18.568Z,1014.99
2022-11-08T13:03:18.677Z,1014.98
2022-11-08T13:05:18.495Z,1014.96
2022-11-08T13:07:18.928Z,1014.96
2022-11-08T13:09:18.504Z,1014.97
2022-11-08T13:11:18.564Z,1014.92
2022-11-08T13:13:18.542Z,1014.93
2022-11-08T13:15:18.542Z,1014.93
2022-11-08T13:17:18.530Z,1014.93
2022-11-08T13:19:18.500Z,1014.97
2022-11-08T13:21:18.536Z,1014.95
2022-11-08T13:23:18.555Z,1014.91
2022-11-08T13:25:18.564Z,1014.91
2022-11-08T13:27:18.654Z,1014.92
2022-11-08T13:29:18.536Z,1014.91
2022-11-08T13:31:18.535Z,1014.95
2022-11-08T13:33:18.564Z,1014.96
2022-11-08T13:35:18.620Z,1014.96
2022-11-08T13:37:18.547Z,1014.94
2022-11-08T13:39:18.914Z,1014.94
2022-11-08T13:41:18.522Z,1014.94
2022-11-08T13:43:18.510Z,1014.95
2022-11-08T13:45:18.554Z,1014.95
2022-11-08T13:47:18.555Z,1014.95
2022-11-08T13:49:18.524Z,1014.94
2022-11-08T13:51:18.530Z,1014.95
2022-11-08T13:53:18.529Z,1014.98
2022-11-08T13:55:48.523Z,1014.98
2022-11-08T13:57:48.632Z,1014.98
2022-11-08T13:59:48.535Z,1014.93
2022-11-08T14:01:48.646Z,1014.93
2022-11-08T14:03:48.556Z,1014.93
2022-11-08T14:05:48.604Z,1014.84
2022-11-08T14:07:48.639Z,1014.80
2022-11-08T14:09:48.550Z,1014.80
2022-11-08T14:11:48.618Z,1014.78
2022-11-08T14:13:48.599Z,1014.78
2022-11-08T14:15:48.618Z,1014.76
2022-11-08T14:17:48.619Z,1014.78
2022-11-08T14:19:48.614Z,1014.81
2022-11-08T14:21:48.730Z,1014.82
2022-11-08T14:23:48.624Z,1014.82
2022-11-08T14:25:48.691Z,1014.82
2022-11-08T14:27:48.638Z,1014.84
2022-11-08T14:29:48.635Z,1014.85
2022-11-08T14:31:48.694Z,1014.85
2022-11-08T14:33:48.664Z,1014.90
2022-11-08T14:35:48.749Z,1014.89
2022-11-08T14:37:48.620Z,1014.89
2022-11-08T14:39:48.748Z,1014.89
2022-11-08T14:41:48.619Z,1014.89
2022-11-08T14:43:48.660Z,1014.85
2022-11-08T14:45:48.712Z,1014.81
2022-11-08T14:47:48.680Z,1014.83
2022-11-08T14:49:48.793Z,1014.85
2022-11-08T14:51:48.809Z,1014.85
2022-11-08T14:55:48.819Z,1014.83
2022-11-08T14:59:51.495Z,1014.80
2022-11-08T15:01:48.667Z,1014.85
2022-11-08T15:05:36.893Z,1014.89
2022-11-08T15:08:06.909Z,1014.89
2022-11-08T15:10:06.974Z,1014.92
2022-11-08T15:12:06.955Z,1014.93
2022-11-08T15:14:06.866Z,1014.93
2022-11-08T15:16:07.039Z,1014.95
2022-11-08T15:18:06.867Z,1014.95
2022-11-08T15:20:06.956Z,1014.91
2022-11-08T15:22:06.898Z,1014.84
2022-11-08T15:24:07.012Z,1014.84
2022-11-08T15:26:06.955Z,1014.78
2022-11-08T15:28:06.986Z,1014.85
2022-11-08T15:30:06.864Z,1014.85
2022-11-08T15:32:06.881Z,1014.85
2022-11-08T15:34:06.874Z,1014.85
2022-11-08T15:36:06.907Z,1014.84
2022-11-08T15:38:06.933Z,1014.72
2022-11-08T15:40:06.851Z,1014.69
2022-11-08T15:42:06.979Z,1014.69
2022-11-08T15:44:06.849Z,1014.74
2022-11-08T15:46:06.831Z,1014.73
2022-11-08T15:48:06.872Z,1014.78
2022-11-08T15:50:06.952Z,1014.78
2022-11-08T15:52:06.927Z,1014.78
2022-11-08T15:54:06.910Z,1014.77
2022-11-08T15:56:07.085Z,1014.66
2022-11-08T15:58:06.923Z,1014.66
2022-11-08T16:00:06.913Z,1014.66
2022-11-08T16:02:06.938Z,1014.72
2022-11-08T16:04:06.878Z,1014.69
2022-11-08T16:06:06.962Z,1014.72
2022-11-08T16:08:06.931Z,1014.73
2022-11-08T16:10:06.991Z,1014.73
2022-11-08T16:12:07.025Z,1014.77
2022-11-08T16:14:06.878Z,1014.77
2022-11-08T16:16:06.884Z,1014.80
2022-11-08T16:18:06.965Z,1014.76
2022-11-08T16:20:06.943Z,1014.76
2022-11-08T16:22:06.910Z,1014.80
2022-11-08T16:24:07.007Z,1014.87
2022-11-08T16:26:06.967Z,1014.84
2022-11-08T16:28:08.970Z,1014.84
2022-11-08T16:30:06.879Z,1014.83
2022-11-08T16:32:06.964Z,1014.82
2022-11-08T16:34:06.913Z,1014.76
2022-11-08T16:36:06.944Z,1014.77
2022-11-08T16:38:06.966Z,1014.77
2022-11-08T16:40:07.012Z,1014.77
2022-11-08T16:42:06.957Z,1014.79
2022-11-08T16:44:06.891Z,1014.77
2022-11-08T16:46:07.232Z,1014.81
2022-11-08T16:48:06.909Z,1014.81
2022-11-08T16:50:06.992Z,1014.77
2022-11-08T16:52:06.939Z,1014.74
2022-11-08T16:54:07.030Z,1014.76
2022-11-08T16:56:06.990Z,1014.78
2022-11-08T16:58:06.959Z,1014.78
2022-11-08T17:00:06.960Z,1014.77
2022-11-08T17:02:06.990Z,1014.81
2022-11-08T17:04:06.853Z,1014.87
2022-11-08T17:06:06.934Z,1014.87
2022-11-08T17:08:36.959Z,1014.84
2022-11-08T17:10:37.018Z,1014.84
2022-11-08T17:12:36.978Z,1014.77
2022-11-08T17:14:37.011Z,1014.82
2022-11-08T17:16:36.957Z,1014.82
2022-11-08T17:18:36.960Z,1014.81
2022-11-08T17:20:36.981Z,1014.81
2022-11-08T17:22:37.002Z,1014.81
2022-11-08T17:24:36.987Z,1014.80
2022-11-08T17:26:37.008Z,1014.80
2022-11-08T17:28:37.022Z,1014.83
2022-11-08T17:30:36.932Z,1014.85
2022-11-08T17:32:36.923Z,1014.88
2022-11-08T17:34:36.928Z,1014.88
2022-11-08T17:36:36.919Z,1014.90
2022-11-08T17:38:36.967Z,1014.93
2022-11-08T17:40:37.045Z,1014.90
2022-11-08T17:42:38.308Z,1014.93
2022-11-08T17:44:37.049Z,1014.93
2022-11-08T17:46:36.936Z,1014.91
2022-11-08T17:48:36.922Z,1014.96
2022-11-08T17:50:36.983Z,1014.92
2022-11-08T17:52:36.968Z,1014.91
2022-11-08T17:54:36.971Z,1014.91
2022-11-08T17:56:36.998Z,1014.91
2022-11-08T17:58:37.022Z,1014.87
2022-11-08T18:00:37.112Z,1014.87
2022-11-08T18:02:36.932Z,1014.87
2022-11-08T18:04:36.943Z,1014.89
2022-11-08T18:06:37.011Z,1014.89
2022-11-08T18:08:37.012Z,1014.84
2022-11-08T18:10:36.995Z,1014.79
2022-11-08T18:12:37.060Z,1014.79
2022-11-08T18:14:37.037Z,1014.72
2022-11-08T18:16:36.967Z,1014.75
2022-11-08T18:18:36.925Z,1014.72
2022-11-08T18:20:37.024Z,1014.68
2022-11-08T18:22:37.039Z,1014.68
2022-11-08T18:24:37.028Z,1014.72
2022-11-08T18:26:37.074Z,1014.72
2022-11-08T18:28:37.069Z,1014.70
2022-11-08T18:30:37.072Z,1014.70
2022-11-08T18:32:37.037Z,1014.68
2022-11-08T18:34:37.078Z,1014.73
2022-11-08T18:36:37.000Z,1014.73
2022-11-08T18:38:36.999Z,1014.76
2022-11-08T18:40:37.022Z,1014.76
2022-11-08T18:42:37.049Z,1014.76
2022-11-08T18:44:37.065Z,1014.73
2022-11-08T18:46:41.826Z,1014.73
2022-11-08T18:48:36.980Z,1014.75
2022-11-08T18:50:36.993Z,1014.75
2022-11-08T18:52:37.001Z,1014.75
2022-11-08T18:54:37.021Z,1014.71
2022-11-08T18:56:37.059Z,1014.72
2022-11-08T18:58:37.094Z,1014.70
2022-11-08T19:00:37.093Z,1014.70
2022-11-08T19:02:36.954Z,1014.77
2022-11-08T19:04:37.031Z,1014.71
2022-11-08T19:06:37.057Z,1014.69
2022-11-08T19:09:07.043Z,1014.67
2022-11-08T19:11:07.050Z,1014.65
2022-11-08T19:13:07.082Z,1014.65
2022-11-08T19:15:07.067Z,1014.60
2022-11-08T19:17:07.076Z,1014.56
2022-11-08T19:19:07.000Z,1014.60
2022-11-08T19:21:07.028Z,1014.60
2022-11-08T19:23:07.057Z,1014.60
2022-11-08T19:25:07.077Z,1014.53
2022-11-08T19:27:07.058Z,1014.56
2022-11-08T19:29:07.073Z,1014.58
2022-11-08T19:31:07.099Z,1014.58
2022-11-08T19:33:07.120Z,1014.64
2022-11-08T19:35:07.085Z,1014.56
2022-11-08T19:37:07.033Z,1014.54
2022-11-08T19:39:07.070Z,1014.58
2022-11-08T19:41:07.084Z,1014.58
2022-11-08T19:43:07.079Z,1014.58
2022-11-08T19:45:09.662Z,1014.53
2022-11-08T19:47:07.101Z,1014.58
2022-11-08T19:49:06.982Z,1014.61
2022-11-08T19:51:07.061Z,1014.61
2022-11-08T19:53:07.792Z,1014.61
2022-11-08T19:55:07.079Z,1014.59
2022-11-08T19:57:07.063Z,1014.55
2022-11-08T19:59:07.071Z,1014.51
2022-11-08T20:01:07.105Z,1014.51
2022-11-08T20:03:07.133Z,1014.51
2022-11-08T20:05:07.035Z,1014.60
2022-11-08T20:07:07.071Z,1014.68
2022-11-08T20:09:07.036Z,1014.68
2022-11-08T20:11:07.092Z,1014.68
2022-11-08T20:13:07.092Z,1014.69
2022-11-08T20:15:07.126Z,1014.67
2022-11-08T20:17:07.107Z,1014.62
2022-11-08T20:19:07.009Z,1014.62
2022-11-08T20:21:07.043Z,1014.61
2022-11-08T20:23:07.051Z,1014.59
2022-11-08T20:25:07.101Z,1014.52
2022-11-08T20:27:07.230Z,1014.50
2022-11-08T20:29:07.097Z,1014.50
2022-11-08T20:31:07.173Z,1014.52
2022-11-08T20:33:07.143Z,1014.50
2022-11-08T20:35:08.655Z,1014.56
2022-11-08T20:37:07.095Z,1014.56
2022-11-08T20:39:07.981Z,1014.54
2022-11-08T20:41:07.105Z,1014.61
2022-11-08T20:43:07.079Z,1014.61
2022-11-08T20:45:12.043Z,1014.73
2022-11-08T20:47:07.086Z,1014.73
2022-11-08T20:49:07.151Z,1014.71
2022-11-08T20:51:07.097Z,1014.69
2022-11-08T20:53:07.071Z,1014.75
2022-11-08T20:55:07.100Z,1014.78
2022-11-08T20:57:07.120Z,1014.78
2022-11-08T20:59:07.156Z,1014.74
2022-11-08T21:01:07.076Z,1014.73
2022-11-08T21:03:07.168Z,1014.74
2022-11-08T21:05:37.106Z,1014.74
2022-11-08T21:08:01.762Z,1014.73
2022-11-08T21:09:48.967Z,1014.70
2022-11-08T21:11:37.103Z,1014.69
2022-11-08T21:13:37.138Z,1014.73
2022-11-08T21:15:37.193Z,1014.73
2022-11-08T21:17:37.162Z,1014.82
2022-11-08T21:19:37.209Z,1014.79
2022-11-08T21:21:37.075Z,1014.77
2022-11-08T21:23:37.064Z,1014.77
2022-11-08T21:25:37.107Z,1014.77
2022-11-08T21:27:37.115Z,1014.63
2022-11-08T21:29:37.159Z,1014.55
2022-11-08T21:31:37.091Z,1014.59
2022-11-08T21:33:37.184Z,1014.59
2022-11-08T21:35:37.128Z,1014.58
2022-11-08T21:37:37.108Z,1014.58
2022-11-08T21:39:37.128Z,1014.59
2022-11-08T21:41:37.124Z,1014.63
2022-11-08T21:43:37.141Z,1014.63
2022-11-08T21:45:37.222Z,1014.65
2022-11-08T21:47:37.206Z,1014.67
2022-11-08T21:49:37.183Z,1014.64
2022-11-08T21:51:37.118Z,1014.62
2022-11-08T21:53:45.156Z,1014.62
2022-11-08T21:55:37.147Z,1014.59
2022-11-08T21:57:37.142Z,1014.59
2022-11-08T21:59:37.165Z,1014.54
2022-11-08T22:01:37.245Z,1014.52
2022-11-08T22:03:37.162Z,1014.52
2022-11-08T22:05:37.098Z,1014.52
2022-11-08T22:07:37.209Z,1014.59
2022-11-08T22:09:37.218Z,1014.62
2022-11-08T22:11:37.136Z,1014.62
2022-11-08T22:13:37.176Z,1014.73
2022-11-08T22:15:37.243Z,1014.79
2022-11-08T22:19:37.165Z,1014.78
2022-11-08T22:21:37.248Z,1014.78
2022-11-08T22:23:37.221Z,1014.85
2022-11-08T22:29:45.517Z,1014.69
2022-11-08T22:31:45.467Z,1014.69
2022-11-08T22:33:45.466Z,1014.65
2022-11-08T22:35:45.424Z,1014.66
2022-11-08T22:37:45.544Z,1014.68
2022-11-08T22:39:45.427Z,1014.68
2022-11-08T22:41:45.419Z,1014.61
2022-11-08T22:43:45.429Z,1014.64
2022-11-08T22:45:45.429Z,1014.64
2022-11-08T22:47:45.422Z,1014.62
2022-11-08T22:49:45.495Z,1014.62
2022-11-08T22:51:45.496Z,1014.60
2022-11-08T22:53:45.457Z,1014.58
2022-11-08T22:55:45.600Z,1014.63
2022-11-08T22:57:45.478Z,1014.64
2022-11-08T22:59:45.449Z,1014.64
2022-11-08T23:01:45.486Z,1014.72
2022-11-08T23:03:45.526Z,1014.70
2022-11-08T23:05:45.456Z,1014.72
2022-11-08T23:07:45.569Z,1014.72
2022-11-08T23:09:45.446Z,1014.72
2022-11-08T23:11:45.461Z,1014.73
2022-11-08T23:13:45.492Z,1014.70
2022-11-08T23:15:45.475Z,1014.70
2022-11-08T23:17:45.447Z,1014.70
2022-11-08T23:19:45.451Z,1014.76
2022-11-08T23:21:45.491Z,1014.76
2022-11-08T23:23:45.466Z,1014.80
2022-11-08T23:25:45.680Z,1014.80
2022-11-08T23:27:45.485Z,1014.80
2022-11-08T23:29:45.451Z,1014.71
2022-11-08T23:32:15.556Z,1014.65
2022-11-08T23:34:15.448Z,1014.64
2022-11-08T23:36:15.575Z,1014.60
2022-11-08T23:38:20.097Z,1014.52
2022-11-08T23:40:15.608Z,1014.52
2022-11-08T23:42:15.456Z,1014.47
2022-11-08T23:44:15.605Z,1014.43
2022-11-08T23:46:15.458Z,1014.47
2022-11-08T23:48:15.546Z,1014.55
2022-11-08T23:50:15.546Z,1014.55
2022-11-08T23:52:15.479Z,1014.56
2022-11-08T23:54:15.521Z,1014.56
2022-11-08T23:56:15.574Z,1014.53
2022-11-08T23:58:15.498Z,1014.39
